sensor_id;sensor_type;location;lat;lon;timestamp;pressure;altitude;pressure_sealevel;temperature;humidity
47166;BME280;32930;51.112;13.762;2023-01-27T03:00:44;99780.09;;;1.98;94.86
47166;BME280;32930;51.112;13.762;2023-01-27T03:03:09;99791.50;;;1.88;95.67
47166;BME280;32930;51.112;13.762;2023-01-27T07:24:28;99883.78;;;1.96;93.80
47166;BME280;32930;51.112;13.762;2023-01-27T07:26:54;99883.91;;;1.99;94.49
47166;BME280;32930;51.112;13.762;2023-01-27T07:45:14;99902.25;;;1.95;93.22
47166;BME280;32930;51.112;13.762;2023-01-27T07:47:40;99899.19;;;1.83;93.08
47166;BME280;32930;51.112;13.762;2023-01-27T07:50:06;99906.59;;;1.98;92.88
47166;BME280;32930;51.112;13.762;2023-01-27T07:52:32;99916.81;;;1.99;92.50
47166;BME280;32930;51.112;13.762;2023-01-27T07:54:58;99914.13;;;1.96;92.75
47166;BME280;32930;51.112;13.762;2023-01-27T07:57:23;99916.53;;;1.93;91.81
47166;BME280;32930;51.112;13.762;2023-01-27T08:02:21;99918.63;;;1.84;90.63
47166;BME280;32930;51.112;13.762;2023-01-27T08:04:49;99919.19;;;1.96;91.01
47166;BME280;32930;51.112;13.762;2023-01-27T08:07:15;99927.78;;;2.00;90.93
47166;BME280;32930;51.112;13.762;2023-01-27T08:09:41;99934.56;;;2.01;90.91
47166;BME280;32930;51.112;13.762;2023-01-27T08:12:07;99934.66;;;1.84;89.36
47166;BME280;32930;51.112;13.762;2023-01-27T08:14:32;99941.09;;;1.96;90.01
47166;BME280;32930;51.112;13.762;2023-01-27T08:16:58;99931.13;;;1.99;90.43
47166;BME280;32930;51.112;13.762;2023-01-27T08:19:23;99934.50;;;1.99;90.04
47166;BME280;32930;51.112;13.762;2023-01-27T08:21:49;99933.38;;;1.93;89.94
47166;BME280;32930;51.112;13.762;2023-01-27T08:24:14;99935.75;;;1.90;90.08
47166;BME280;32930;51.112;13.762;2023-01-27T08:26:40;99945.94;;;1.91;90.08
47166;BME280;32930;51.112;13.762;2023-01-27T08:29:05;99953.38;;;2.06;90.07
47166;BME280;32930;51.112;13.762;2023-01-27T08:31:31;99953.75;;;1.96;90.08
47166;BME280;32930;51.112;13.762;2023-01-27T08:33:56;99946.34;;;2.00;90.54
47166;BME280;32930;51.112;13.762;2023-01-27T08:36:34;99953.13;;;2.01;90.51
47166;BME280;32930;51.112;13.762;2023-01-27T08:39:00;99953.94;;;2.00;90.29
47166;BME280;32930;51.112;13.762;2023-01-27T08:41:26;99945.34;;;1.97;90.91
47166;BME280;32930;51.112;13.762;2023-01-27T08:43:53;99955.31;;;1.94;90.47
47166;BME280;32930;51.112;13.762;2023-01-27T08:46:19;99957.13;;;1.96;91.00
47166;BME280;32930;51.112;13.762;2023-01-27T08:48:45;99950.41;;;1.97;91.43
47166;BME280;32930;51.112;13.762;2023-01-27T08:51:12;99955.38;;;1.95;91.18
47166;BME280;32930;51.112;13.762;2023-01-27T08:53:39;99945.78;;;1.88;91.19
47166;BME280;32930;51.112;13.762;2023-01-27T08:56:10;99950.13;;;1.91;90.79
47166;BME280;32930;51.112;13.762;2023-01-27T08:58:35;99956.63;;;2.03;91.03
47166;BME280;32930;51.112;13.762;2023-01-27T09:01:04;99949.03;;;2.03;90.81
47166;BME280;32930;51.112;13.762;2023-01-27T09:03:31;99963.13;;;1.98;90.13
47166;BME280;32930;51.112;13.762;2023-01-27T09:05:57;99966.88;;;2.06;91.06
47166;BME280;32930;51.112;13.762;2023-01-27T09:08:24;99964.88;;;1.99;90.80
47166;BME280;32930;51.112;13.762;2023-01-27T09:10:49;99961.47;;;1.99;90.62
47166;BME280;32930;51.112;13.762;2023-01-27T09:13:15;99963.25;;;2.01;90.38
47166;BME280;32930;51.112;13.762;2023-01-27T09:15:41;99963.78;;;1.94;90.47
47166;BME280;32930;51.112;13.762;2023-01-27T09:18:09;99960.09;;;2.05;91.05
47166;BME280;32930;51.112;13.762;2023-01-27T09:20:35;99964.72;;;1.96;90.86
47166;BME280;32930;51.112;13.762;2023-01-27T09:23:03;99967.53;;;2.02;90.69
47166;BME280;32930;51.112;13.762;2023-01-27T09:25:29;99962.19;;;1.96;91.50
47166;BME280;32930;51.112;13.762;2023-01-27T09:27:57;99965.44;;;1.94;91.29
47166;BME280;32930;51.112;13.762;2023-01-27T09:30:25;99967.16;;;1.95;91.37
47166;BME280;32930;51.112;13.762;2023-01-27T09:32:51;99957.63;;;2.07;91.28
47166;BME280;32930;51.112;13.762;2023-01-27T09:35:17;99974.53;;;2.08;90.89
47166;BME280;32930;51.112;13.762;2023-01-27T09:37:53;99977.66;;;2.02;90.93
47166;BME280;32930;51.112;13.762;2023-01-27T09:40:32;99981.78;;;2.00;90.62
47166;BME280;32930;51.112;13.762;2023-01-27T09:43:56;99977.66;;;2.02;91.12
47166;BME280;32930;51.112;13.762;2023-01-27T09:51:22;99981.38;;;2.11;91.17
47166;BME280;32930;51.112;13.762;2023-01-27T10:00:25;99977.06;;;2.08;92.37
47166;BME280;32930;51.112;13.762;2023-01-27T10:05:52;99970.16;;;2.23;91.63
47166;BME280;32930;51.112;13.762;2023-01-27T10:14:21;99978.88;;;2.11;91.82
47166;BME280;32930;51.112;13.762;2023-01-27T10:22:24;99974.16;;;2.18;92.23
47166;BME280;32930;51.112;13.762;2023-01-27T10:28:10;99970.16;;;2.23;92.26
47166;BME280;32930;51.112;13.762;2023-01-27T10:30:47;99967.84;;;2.28;92.77
47166;BME280;32930;51.112;13.762;2023-01-27T10:33:18;99976.22;;;2.27;92.89
47166;BME280;32930;51.112;13.762;2023-01-27T10:39:28;99976.88;;;2.23;93.35
47166;BME280;32930;51.112;13.762;2023-01-27T10:42:19;99974.66;;;2.11;92.79
47166;BME280;32930;51.112;13.762;2023-01-27T10:50:27;99963.78;;;2.31;93.52
47166;BME280;32930;51.112;13.762;2023-01-27T10:56:49;99971.97;;;2.26;93.82
47166;BME280;32930;51.112;13.762;2023-01-27T11:15:34;99974.50;;;2.26;93.66
47166;BME280;32930;51.112;13.762;2023-01-27T11:18:14;99970.31;;;2.26;94.14
47166;BME280;32930;51.112;13.762;2023-01-27T11:23:21;99974.50;;;2.26;95.00
47166;BME280;32930;51.112;13.762;2023-01-27T11:28:53;99979.97;;;2.35;94.68
47166;BME280;32930;51.112;13.762;2023-01-27T11:34:38;99964.13;;;2.39;95.71
47166;BME280;32930;51.112;13.762;2023-01-27T11:37:22;99968.25;;;2.37;95.14
47166;BME280;32930;51.112;13.762;2023-01-27T11:39:56;99970.06;;;2.40;96.07
47166;BME280;32930;51.112;13.762;2023-01-27T11:42:26;99967.53;;;2.40;95.19
47166;BME280;32930;51.112;13.762;2023-01-27T16:04:06;99988.09;;;3.06;100.00
47166;BME280;32930;51.112;13.762;2023-01-27T16:10:02;99993.81;;;3.00;100.00
47166;BME280;32930;51.112;13.762;2023-01-27T16:25:41;100002.41;;;3.04;100.00
47166;BME280;32930;51.112;13.762;2023-01-27T16:28:17;100007.47;;;2.84;100.00
47166;BME280;32930;51.112;13.762;2023-01-27T16:31:04;100002.31;;;3.02;99.94
47166;BME280;32930;51.112;13.762;2023-01-27T16:33:41;100003.72;;;2.95;99.82
47166;BME280;32930;51.112;13.762;2023-01-27T16:36:19;100008.00;;;2.96;99.37
47166;BME280;32930;51.112;13.762;2023-01-27T16:38:47;100014.19;;;3.03;98.87
47166;BME280;32930;51.112;13.762;2023-01-27T16:41:20;100014.06;;;3.00;98.90
47166;BME280;32930;51.112;13.762;2023-01-27T16:44:37;100015.84;;;3.02;98.53
47166;BME280;32930;51.112;13.762;2023-01-27T16:46:53;100023.09;;;2.93;97.75
47166;BME280;32930;51.112;13.762;2023-01-27T16:52:03;100028.34;;;2.98;97.37
47166;BME280;32930;51.112;13.762;2023-01-27T16:54:43;100030.88;;;2.98;96.81
47166;BME280;32930;51.112;13.762;2023-01-27T16:57:32;100028.06;;;2.92;96.74
47166;BME280;32930;51.112;13.762;2023-01-27T17:00:31;100030.88;;;2.78;96.32
47166;BME280;32930;51.112;13.762;2023-01-27T17:03:21;100031.47;;;2.92;96.20
47166;BME280;32930;51.112;13.762;2023-01-27T17:16:35;100053.66;;;2.98;92.95
47166;BME280;32930;51.112;13.762;2023-01-27T17:32:36;100059.41;;;2.94;91.68
47166;BME280;32930;51.112;13.762;2023-01-27T17:35:07;100058.69;;;2.96;92.26
47166;BME280;32930;51.112;13.762;2023-01-27T18:14:26;100075.13;;;2.87;92.57
47166;BME280;32930;51.112;13.762;2023-01-27T18:17:04;100079.88;;;2.79;92.62
47166;BME280;32930;51.112;13.762;2023-01-27T18:38:21;100096.34;;;2.89;93.04
47166;BME280;32930;51.112;13.762;2023-01-27T18:43:24;100097.16;;;2.88;94.01
47166;BME280;32930;51.112;13.762;2023-01-27T18:45:50;100106.59;;;2.92;94.32
47166;BME280;32930;51.112;13.762;2023-01-27T18:51:38;100110.81;;;2.91;94.43
47166;BME280;32930;51.112;13.762;2023-01-27T18:54:04;100114.22;;;2.92;94.11
47166;BME280;32930;51.112;13.762;2023-01-27T18:59:05;100110.97;;;2.94;94.42
47166;BME280;32930;51.112;13.762;2023-01-27T19:01:54;100114.59;;;2.82;94.79
47166;BME280;32930;51.112;13.762;2023-01-27T19:04:23;100120.38;;;2.97;95.24
47166;BME280;32930;51.112;13.762;2023-01-27T19:09:46;100117.41;;;2.88;94.71
47166;BME280;32930;51.112;13.762;2023-01-27T19:12:14;100117.19;;;2.83;95.13
47166;BME280;32930;51.112;13.762;2023-01-27T19:36:44;100125.59;;;2.82;95.27
47166;BME280;32930;51.112;13.762;2023-01-27T19:39:15;100131.38;;;2.97;95.20
47166;BME280;32930;51.112;13.762;2023-01-27T20:03:45;100133.22;;;3.01;93.76
47166;BME280;32930;51.112;13.762;2023-01-27T20:06:25;100141.63;;;3.00;93.77
47166;BME280;32930;51.112;13.762;2023-01-27T20:22:17;100143.75;;;2.91;94.22
47166;BME280;32930;51.112;13.762;2023-01-27T20:24:43;100148.72;;;2.90;93.59
47166;BME280;32930;51.112;13.762;2023-01-27T20:27:22;100155.84;;;2.97;93.20
47166;BME280;32930;51.112;13.762;2023-01-27T20:29:47;100154.72;;;3.10;93.27
47166;BME280;32930;51.112;13.762;2023-01-27T20:32:13;100161.81;;;2.99;93.05
47166;BME280;32930;51.112;13.762;2023-01-27T20:34:39;100158.44;;;2.98;93.08
47166;BME280;32930;51.112;13.762;2023-01-27T20:37:05;100158.28;;;2.95;93.50
47166;BME280;32930;51.112;13.762;2023-01-27T20:39:30;100162.59;;;2.96;93.10
47166;BME280;32930;51.112;13.762;2023-01-27T20:59:04;100153.63;;;3.05;93.19
47166;BME280;32930;51.112;13.762;2023-01-27T21:01:30;100154.09;;;2.96;93.58
47166;BME280;32930;51.112;13.762;2023-01-27T21:03:57;100147.97;;;2.91;93.44
47166;BME280;32930;51.112;13.762;2023-01-27T21:11:40;100158.72;;;2.87;93.76
47166;BME280;32930;51.112;13.762;2023-01-27T21:14:05;100160.09;;;2.98;93.75
47166;BME280;32930;51.112;13.762;2023-01-27T21:16:31;100158.72;;;2.87;93.74
47166;BME280;32930;51.112;13.762;2023-01-27T21:21:34;100155.22;;;3.02;93.82
47166;BME280;32930;51.112;13.762;2023-01-27T21:24:00;100164.06;;;3.11;93.07
47166;BME280;32930;51.112;13.762;2023-01-27T21:26:25;100156.16;;;3.05;93.14
47166;BME280;32930;51.112;13.762;2023-01-27T21:28:51;100155.84;;;2.97;93.47
47166;BME280;32930;51.112;13.762;2023-01-27T21:37:54;100157.50;;;2.96;94.27
47166;BME280;32930;51.112;13.762;2023-01-27T21:43:15;100160.97;;;2.98;94.88
47166;BME280;32930;51.112;13.762;2023-01-27T21:46:08;100155.97;;;3.00;95.49
47166;BME280;32930;51.112;13.762;2023-01-27T21:48:41;100155.09;;;2.99;95.23
47166;BME280;32930;51.112;13.762;2023-01-27T21:51:10;100162.19;;;3.07;95.27
47166;BME280;32930;51.112;13.762;2023-01-27T21:53:38;100157.91;;;3.06;95.99
47166;BME280;32930;51.112;13.762;2023-01-27T21:56:19;100156.63;;;2.96;95.89
47166;BME280;32930;51.112;13.762;2023-01-27T21:58:48;100149.81;;;2.95;95.74
47166;BME280;32930;51.112;13.762;2023-01-27T22:01:13;100159.38;;;3.00;96.45
47166;BME280;32930;51.112;13.762;2023-01-27T22:03:41;100157.13;;;3.07;95.80
47166;BME280;32930;51.112;13.762;2023-01-27T22:06:08;100153.63;;;3.05;95.91
47166;BME280;32930;51.112;13.762;2023-01-27T22:18:40;100140.50;;;2.94;97.46
47166;BME280;32930;51.112;13.762;2023-01-27T22:21:06;100147.38;;;2.96;97.30
47166;BME280;32930;51.112;13.762;2023-01-27T22:30:16;100145.22;;;3.06;97.43
47166;BME280;32930;51.112;13.762;2023-01-27T22:32:57;100144.22;;;3.02;97.21
47166;BME280;32930;51.112;13.762;2023-01-27T22:35:33;100141.78;;;3.04;97.75
47166;BME280;32930;51.112;13.762;2023-01-27T22:41:22;100139.03;;;2.99;97.75
47166;BME280;32930;51.112;13.762;2023-01-27T22:52:20;100139.66;;;3.13;98.44
47166;BME280;32930;51.112;13.762;2023-01-27T22:54:46;100145.22;;;3.06;99.00
47166;BME280;32930;51.112;13.762;2023-01-27T22:57:11;100150.56;;;3.12;99.04
47166;BME280;32930;51.112;13.762;2023-01-27T22:59:37;100143.78;;;3.11;98.81
47166;BME280;32930;51.112;13.762;2023-01-27T23:02:05;100148.03;;;3.12;98.79
47166;BME280;32930;51.112;13.762;2023-01-27T23:04:34;100146.59;;;3.17;98.71
47166;BME280;32930;51.112;13.762;2023-01-27T23:07:00;100147.72;;;3.04;98.80
47166;BME280;32930;51.112;13.762;2023-01-27T23:09:25;100148.28;;;2.98;99.16
47166;BME280;32930;51.112;13.762;2023-01-27T23:11:51;100145.63;;;2.95;100.00
47166;BME280;32930;51.112;13.762;2023-01-27T23:14:17;100134.22;;;3.05;100.00
47166;BME280;32930;51.112;13.762;2023-01-27T23:16:43;100144.16;;;3.00;100.00
47166;BME280;32930;51.112;13.762;2023-01-27T23:19:09;100142.81;;;2.89;100.00
47166;BME280;32930;51.112;13.762;2023-01-27T23:21:35;100141.94;;;2.89;100.00
47166;BME280;32930;51.112;13.762;2023-01-27T23:24:01;100143.75;;;2.91;100.00
47166;BME280;32930;51.112;13.762;2023-01-27T23:26:27;100135.28;;;2.91;100.00
47166;BME280;32930;51.112;13.762;2023-01-27T23:28:53;100134.28;;;2.87;100.00
47166;BME280;32930;51.112;13.762;2023-01-27T23:31:22;100143.94;;;2.96;99.94
47166;BME280;32930;51.112;13.762;2023-01-27T23:33:47;100137.28;;;2.98;100.00
47166;BME280;32930;51.112;13.762;2023-01-27T23:36:13;100140.84;;;2.84;99.98
47166;BME280;32930;51.112;13.762;2023-01-27T23:38:41;100138.50;;;2.69;99.83
47166;BME280;32930;51.112;13.762;2023-01-27T23:41:13;100137.69;;;2.88;100.00
47166;BME280;32930;51.112;13.762;2023-01-27T23:43:58;100137.81;;;2.91;99.02
47166;BME280;32930;51.112;13.762;2023-01-27T23:46:24;100137.16;;;2.95;99.09
47166;BME280;32930;51.112;13.762;2023-01-27T23:48:55;100136.47;;;2.79;99.65
